CheckWX is a tool to help pilots better visualize weather data.  It is not intended as a substitute for an official pre-flight weather briefing.

16:28:20 UTC

LIRE TAF
Pratica Di Mare Airport
Pomezia, Italy
TAF LIRE 251400Z 2515/2524 17008KT 9999 SCT015 SCT040

Jan-25@
15:00 UTC

Jan-25 @ 15:00 UTC

Jan-26@
00:00 UTC

Jan-26 @ 00:00 UTC

TAF LIRE 251400Z 2515/2524 17008KT 9999 SCT015 SCT040
Wind
  • 170° at 8 KTS
Cloud Levels
  • Scattered at 1,500' AGL
  • Scattered at 4,000' AGL